Time;durP1;ratioP1;P1;durP2;ratioP2;P2;SDS_P1;SDS_P2;PMS_P1;PMS_P2;Temp;Humidity;BMP_temperature;BMP_pressure;BME280_temperature;BME280_humidity;BME280_pressure;Samples;Min_cycle;Max_cycle;Signal;HPM_P1;HPM_P2
2022/05/28 00:01:04;;;;;;;4.38;1.42;;;;;;;10.19;66.00;97771.72;5095031;28;20048;-71
2022/05/28 00:03:32;;;;;;;9.82;1.58;;;;;;;10.25;65.43;97775.00;5088636;28;20053;-70
2022/05/28 00:06:00;;;;;;;2.08;1.50;;;;;;;10.26;65.63;97768.25;5074373;28;20069;-70
2022/05/28 00:08:28;;;;;;;2.70;1.20;;;;;;;10.27;65.33;97756.00;5074566;28;20061;-71
2022/05/28 00:10:58;;;;;;;2.92;1.45;;;;;;;10.24;64.73;97749.19;5074542;28;20090;-71
2022/05/28 00:13:26;;;;;;;4.13;1.45;;;;;;;10.21;65.17;97743.56;5074213;28;20560;-71
2022/05/28 00:15:54;;;;;;;8.73;1.73;;;;;;;10.24;64.68;97732.50;5072828;28;20045;-70
2022/05/28 00:18:22;;;;;;;3.17;1.50;;;;;;;10.24;65.22;97737.25;5074503;28;20419;-70
2022/05/28 00:20:50;;;;;;;4.78;1.60;;;;;;;10.14;64.38;97724.03;5074621;28;20044;-71
2022/05/28 00:23:18;;;;;;;5.80;1.80;;;;;;;10.02;64.22;97718.63;5074334;28;20511;-71
2022/05/28 00:25:47;;;;;;;3.97;1.35;;;;;;;9.98;64.68;97717.78;5073908;28;20512;-70
2022/05/28 00:28:18;;;;;;;2.28;1.35;;;;;;;10.01;64.55;97703.16;5074499;28;20057;-72
2022/05/28 00:30:46;;;;;;;4.63;1.20;;;;;;;10.04;64.55;97710.75;5074175;28;20135;-68
2022/05/28 00:33:14;;;;;;;4.65;1.40;;;;;;;10.01;64.25;97714.28;5074201;28;20098;-67
2022/05/28 00:35:42;;;;;;;2.28;1.40;;;;;;;10.03;64.74;97711.91;5073800;28;20052;-68
2022/05/28 00:38:10;;;;;;;9.43;1.60;;;;;;;10.00;63.73;97702.34;5073697;28;20059;-67
2022/05/28 00:40:37;;;;;;;4.80;1.35;;;;;;;10.07;63.64;97701.69;5073968;28;20045;-67
2022/05/28 00:43:05;;;;;;;2.50;1.27;;;;;;;10.12;63.47;97699.38;5080691;28;20123;-68
2022/05/28 00:45:33;;;;;;;3.55;1.10;;;;;;;10.16;63.16;97696.66;5093863;28;20048;-68
2022/05/28 00:48:04;;;;;;;3.40;1.13;;;;;;;10.27;63.87;97689.31;5093875;28;20048;-69
2022/05/28 00:50:35;;;;;;;3.70;1.10;;;;;;;10.34;62.85;97686.59;5093972;28;20059;-69
2022/05/28 00:53:04;;;;;;;4.50;1.20;;;;;;;10.39;62.81;97687.06;5089709;28;20499;-68
2022/05/28 00:55:33;;;;;;;7.25;1.58;;;;;;;10.37;62.82;97677.53;5073683;28;20511;-71
2022/05/28 00:58:05;;;;;;;2.30;1.20;;;;;;;10.35;63.72;97679.88;5073681;28;20472;-71
2022/05/28 01:00:33;;;;;;;2.20;1.20;;;;;;;10.30;63.35;97678.22;5073161;28;20052;-70
2022/05/28 01:03:17;;;;;;;3.90;1.52;;;;;;;10.25;63.04;97681.31;5073806;28;20060;-71
2022/05/28 01:06:10;;;;;;;2.97;1.35;;;;;;;10.21;63.79;97685.22;5093536;28;20450;-71
2022/05/28 01:08:45;;;;;;;7.70;1.65;;;;;;;10.19;63.94;97693.16;5093504;28;20048;-71
2022/05/28 01:11:25;;;;;;;6.38;1.65;;;;;;;10.17;64.02;97689.94;5091929;28;20055;-71
2022/05/28 01:14:02;;;;;;;3.30;1.50;;;;;;;10.12;64.42;97687.47;5093446;28;20050;-71
2022/05/28 01:16:42;;;;;;;2.72;1.30;;;;;;;10.14;64.52;97685.94;5093503;28;20502;-70
2022/05/28 01:19:38;;;;;;;3.05;1.30;;;;;;;10.19;64.28;97682.81;5093842;28;20052;-70
2022/05/28 01:22:27;;;;;;;4.35;1.67;;;;;;;10.21;65.15;97677.69;5093731;28;20392;-71
2022/05/28 01:25:06;;;;;;;2.77;1.50;;;;;;;10.24;64.41;97685.28;5093499;28;20388;-72
2022/05/28 01:27:46;;;;;;;4.03;1.27;;;;;;;10.27;64.14;97680.97;5092802;28;20051;-71
2022/05/28 01:30:15;;;;;;;6.07;1.20;;;;;;;10.18;64.76;97664.53;5093471;28;20047;-71
2022/05/28 01:32:44;;;;;;;3.58;1.17;;;;;;;10.18;64.49;97664.53;5093071;28;20059;-72
2022/05/28 01:35:15;;;;;;;7.28;1.50;;;;;;;10.15;65.09;97665.28;5093661;28;20143;-71
2022/05/28 01:37:45;;;;;;;6.22;1.10;;;;;;;10.17;65.30;97659.38;5093209;28;20442;-72
2022/05/28 01:40:14;;;;;;;5.63;1.70;;;;;;;10.14;65.24;97657.34;5093296;28;20047;-72
2022/05/28 01:42:51;;;;;;;3.28;1.40;;;;;;;10.12;65.95;97654.94;5093220;28;20043;-70
2022/05/28 01:45:22;;;;;;;3.95;1.40;;;;;;;10.09;65.44;97655.69;5093530;28;20054;-71
2022/05/28 01:47:51;;;;;;;3.38;1.33;;;;;;;10.11;65.83;97663.66;5092847;28;20135;-70
2022/05/28 01:50:23;;;;;;;5.10;1.58;;;;;;;10.14;66.17;97657.34;5092911;28;20070;-71
2022/05/28 01:52:51;;;;;;;3.05;1.35;;;;;;;10.13;66.50;97656.53;5092828;28;20043;-71
2022/05/28 01:55:21;;;;;;;3.90;1.20;;;;;;;10.16;65.79;97647.44;5092879;28;20090;-71
2022/05/28 01:57:50;;;;;;;4.07;1.27;;;;;;;10.21;66.21;97649.09;5093242;28;20503;-71
2022/05/28 02:00:18;;;;;;;6.40;1.60;;;;;;;10.24;66.41;97651.13;5091635;28;20054;-72
2022/05/28 02:02:45;;;;;;;5.05;1.63;;;;;;;10.28;65.62;97651.97;5092938;28;20048;-71
2022/05/28 02:05:13;;;;;;;3.85;1.65;;;;;;;10.29;65.39;97643.28;5074309;28;20197;-70
2022/05/28 02:07:40;;;;;;;4.28;1.45;;;;;;;10.31;65.29;97640.13;5072346;28;20117;-73
2022/05/28 02:10:12;;;;;;;4.18;1.38;;;;;;;10.35;65.94;97640.94;5072200;28;20061;-71
2022/05/28 02:13:01;;;;;;;3.13;1.50;;;;;;;10.37;64.56;97633.84;5072381;28;20051;-72
2022/05/28 02:15:32;;;;;;;3.55;1.38;;;;;;;10.42;64.90;97624.38;5071193;28;20052;-71
2022/05/28 02:18:18;;;;;;;3.35;2.00;;;;;;;10.56;65.14;97627.31;5072618;28;20463;-72
2022/05/28 02:21:16;;;;;;;5.35;1.88;;;;;;;10.75;63.90;97627.16;5072503;28;20127;-71
2022/05/28 02:23:53;;;;;;;2.60;1.48;;;;;;;10.92;64.03;97627.34;5072614;28;20102;-76
2022/05/28 02:26:49;;;;;;;2.97;1.30;;;;;;;11.08;63.43;97629.91;5072841;28;20143;-71
2022/05/28 02:29:17;;;;;;;3.88;1.80;;;;;;;11.13;63.61;97628.75;5079721;28;20050;-72
2022/05/28 02:31:49;;;;;;;5.05;1.92;;;;;;;11.16;63.32;97637.13;5092686;28;20048;-77
2022/05/28 02:34:18;;;;;;;7.72;1.70;;;;;;;11.09;63.74;97631.50;5091297;28;20052;-73
2022/05/28 02:36:45;;;;;;;11.52;2.25;;;;;;;10.98;63.49;97630.59;5092457;28;20044;-71
2022/05/28 02:39:12;;;;;;;8.75;2.15;;;;;;;10.99;63.98;97640.53;5092705;28;20044;-72
2022/05/28 02:41:40;;;;;;;8.93;2.25;;;;;;;10.92;63.85;97635.69;5092530;28;20383;-72
2022/05/28 02:44:09;;;;;;;2.85;1.60;;;;;;;10.81;63.98;97628.44;5092608;28;20105;-72
2022/05/28 02:46:36;;;;;;;4.72;1.90;;;;;;;10.85;63.63;97634.81;5092244;28;20059;-71
2022/05/28 02:49:04;;;;;;;8.88;1.88;;;;;;;10.77;63.92;97636.72;5094304;28;20097;-73
2022/05/28 02:51:31;;;;;;;4.88;2.03;;;;;;;10.75;64.10;97632.72;5096292;28;20089;-72
2022/05/28 02:53:57;;;;;;;6.13;2.35;;;;;;;10.78;64.30;97632.75;5081488;28;20511;-72
2022/05/28 02:56:24;;;;;;;6.20;2.35;;;;;;;10.85;63.73;97626.47;5076091;28;20500;-76
2022/05/28 02:58:51;;;;;;;6.10;2.15;;;;;;;10.90;63.76;97629.72;5076026;28;20045;-71
2022/05/28 03:01:27;;;;;;;4.32;2.40;;;;;;;10.87;63.79;97629.69;5075558;28;20056;-71
2022/05/28 03:03:56;;;;;;;5.00;2.20;;;;;;;10.80;64.34;97626.81;5083380;28;20044;-72
2022/05/28 03:06:23;;;;;;;7.15;2.15;;;;;;;10.81;64.28;97631.22;5095758;28;20121;-72
2022/05/28 03:08:50;;;;;;;5.35;2.42;;;;;;;10.79;64.63;97614.09;5095851;28;20414;-72
2022/05/28 03:11:17;;;;;;;10.63;2.30;;;;;;;10.90;64.04;97612.25;5094734;28;20044;-71
2022/05/28 03:13:45;;;;;;;5.25;2.47;;;;;;;10.92;63.81;97609.84;5095954;28;20052;-74
2022/05/28 03:16:12;;;;;;;6.35;2.25;;;;;;;10.92;64.06;97615.41;5095751;28;20051;-71
2022/05/28 03:18:39;;;;;;;5.97;2.55;;;;;;;10.95;64.10;97597.97;5095893;28;20052;-71
2022/05/28 03:21:07;;;;;;;9.85;3.20;;;;;;;10.96;64.28;97611.50;5095560;28;20130;-72
2022/05/28 03:23:34;;;;;;;5.57;2.55;;;;;;;10.83;65.01;97610.16;5094289;28;20052;-70
2022/05/28 03:26:12;;;;;;;5.15;2.60;;;;;;;10.75;64.86;97596.56;5095618;28;20055;-71
2022/05/28 03:28:39;;;;;;;9.30;3.38;;;;;;;10.80;64.94;97602.59;5096026;28;20048;-76
2022/05/28 03:31:06;;;;;;;6.55;2.40;;;;;;;10.96;64.50;97599.59;5095346;28;20123;-71
2022/05/28 03:33:33;;;;;;;6.97;2.47;;;;;;;11.27;64.18;97596.28;5095642;28;20507;-72
2022/05/28 03:36:00;;;;;;;10.02;2.90;;;;;;;11.61;63.69;97591.41;5095493;28;20040;-75
2022/05/28 03:38:27;;;;;;;7.57;2.60;;;;;;;11.95;62.88;97595.63;5095710;28;20423;-70
2022/05/28 03:40:54;;;;;;;8.85;2.28;;;;;;;12.16;61.99;97596.56;5093979;28;20079;-70
2022/05/28 03:43:21;;;;;;;12.55;2.80;;;;;;;12.38;61.69;97584.31;5095631;28;20058;-69
2022/05/28 03:45:48;;;;;;;5.18;2.30;;;;;;;12.74;60.90;97583.25;5095255;28;20101;-69
2022/05/28 03:48:15;;;;;;;8.43;2.50;;;;;;;13.11;60.42;97576.59;5095593;28;20044;-69
2022/05/28 03:50:43;;;;;;;4.47;2.10;;;;;;;13.26;59.57;97586.59;5094946;28;20052;-68
2022/05/28 03:53:11;;;;;;;5.22;2.35;;;;;;;13.33;59.23;97575.41;5095532;28;20105;-69
2022/05/28 03:55:39;;;;;;;6.60;2.72;;;;;;;13.50;59.05;97580.22;5095032;28;20463;-69
2022/05/28 03:58:06;;;;;;;3.42;2.05;;;;;;;13.57;58.65;97581.00;5095157;28;20052;-69
2022/05/28 04:00:34;;;;;;;6.03;2.10;;;;;;;13.66;58.41;97563.84;5094873;28;20142;-69
2022/05/28 04:03:04;;;;;;;7.40;2.00;;;;;;;13.73;58.20;97569.41;5092463;28;20135;-69
2022/05/28 04:05:31;;;;;;;5.10;2.08;;;;;;;13.74;58.27;97569.00;5073539;28;20472;-69
2022/05/28 04:07:58;;;;;;;9.73;2.33;;;;;;;13.69;57.90;97566.63;5075015;28;20131;-69
2022/05/28 04:10:25;;;;;;;9.75;2.15;;;;;;;13.57;57.99;97571.81;5074542;28;20044;-68
2022/05/28 04:12:52;;;;;;;9.43;2.38;;;;;;;13.45;58.28;97573.03;5074642;28;20074;-69
2022/05/28 04:15:19;;;;;;;5.03;1.80;;;;;;;13.39;58.04;97568.25;5074739;28;20052;-69
2022/05/28 04:17:46;;;;;;;6.30;2.33;;;;;;;13.33;58.54;97573.44;5074593;28;20076;-69
2022/05/28 04:20:13;;;;;;;6.82;2.85;;;;;;;13.34;58.60;97571.41;5074402;28;20139;-68
2022/05/28 04:22:40;;;;;;;5.05;2.30;;;;;;;13.36;58.25;97571.84;5074111;28;20060;-69
2022/05/28 04:25:08;;;;;;;3.78;2.60;;;;;;;13.37;58.41;97571.44;5074341;28;20063;-69
2022/05/28 04:27:40;;;;;;;5.60;2.78;;;;;;;13.35;58.41;97573.81;5074335;28;20135;-70
2022/05/28 04:30:07;;;;;;;3.17;2.17;;;;;;;13.34;58.45;97577.00;5074272;28;20051;-69
2022/05/28 04:32:34;;;;;;;7.72;2.35;;;;;;;13.27;58.43;97582.59;5074239;28;20071;-69
2022/05/28 04:35:01;;;;;;;6.20;2.55;;;;;;;13.34;58.36;97582.59;5074155;28;20052;-69
2022/05/28 04:37:28;;;;;;;7.70;2.10;;;;;;;13.60;57.84;97579.41;5074099;28;20136;-68
2022/05/28 04:39:55;;;;;;;7.95;2.20;;;;;;;13.83;57.52;97579.78;5079618;28;20087;-68
2022/05/28 04:42:22;;;;;;;4.13;2.03;;;;;;;13.98;57.20;97568.16;5094235;28;20387;-69
2022/05/28 04:44:49;;;;;;;4.18;2.50;;;;;;;14.07;57.28;97576.16;5094254;28;20511;-69
2022/05/28 04:47:16;;;;;;;4.75;2.42;;;;;;;14.11;56.78;97577.75;5093973;28;20146;-69
2022/05/28 04:49:43;;;;;;;7.22;2.15;;;;;;;14.03;56.74;97584.53;5094101;28;20502;-69
2022/05/28 04:52:10;;;;;;;4.72;2.50;;;;;;;13.95;57.34;97587.75;5093660;28;20054;-69
2022/05/28 04:54:37;;;;;;;3.95;1.92;;;;;;;13.92;57.46;97585.78;5093829;28;20094;-69
2022/05/28 04:57:04;;;;;;;7.75;2.30;;;;;;;13.95;57.15;97580.16;5093683;28;20529;-69
2022/05/28 04:59:31;;;;;;;5.88;2.60;;;;;;;13.97;57.21;97576.94;5093974;28;20070;-69
2022/05/28 05:01:58;;;;;;;4.35;2.10;;;;;;;13.94;57.47;97584.16;5093925;28;20143;-69
2022/05/28 05:04:25;;;;;;;11.13;2.42;;;;;;;13.89;57.88;97580.97;5079953;28;20086;-69
2022/05/28 05:06:52;;;;;;;7.60;2.70;;;;;;;13.84;58.12;97578.59;5073203;28;20113;-69
2022/05/28 05:09:19;;;;;;;6.30;2.53;;;;;;;13.76;58.09;97577.00;5073480;28;20044;-70
2022/05/28 05:11:46;;;;;;;5.85;2.92;;;;;;;13.73;58.42;97583.38;5072592;28;20563;-69
2022/05/28 05:14:13;;;;;;;7.47;2.13;;;;;;;13.76;58.48;97577.00;5072217;28;20052;-68
2022/05/28 05:16:41;;;;;;;6.85;2.10;;;;;;;13.80;58.23;97578.59;5073246;28;20136;-68
2022/05/28 05:19:08;;;;;;;4.82;2.20;;;;;;;13.81;58.39;97576.59;5073257;28;20525;-69
2022/05/28 05:21:35;;;;;;;4.60;1.80;;;;;;;13.87;58.28;97574.97;5073237;28;20036;-68
2022/05/28 05:24:02;;;;;;;10.50;2.13;;;;;;;13.95;58.35;97584.97;5073558;28;20058;-69
2022/05/28 05:26:29;;;;;;;4.15;2.08;;;;;;;14.08;57.91;97583.34;5072895;28;20136;-69
2022/05/28 05:28:56;;;;;;;8.90;2.13;;;;;;;14.14;57.58;97576.13;5074886;28;20456;-70
2022/05/28 05:31:23;;;;;;;6.93;2.90;;;;;;;14.08;58.00;97577.75;5093163;28;20101;-69
2022/05/28 05:33:51;;;;;;;6.07;2.38;;;;;;;13.88;57.85;97585.75;5093308;28;20097;-69
2022/05/28 05:36:18;;;;;;;8.00;2.22;;;;;;;13.79;57.83;97587.38;5093278;28;20473;-69
2022/05/28 05:38:45;;;;;;;4.07;2.13;;;;;;;13.62;57.89;97586.19;5093010;28;20066;-69
2022/05/28 05:41:12;;;;;;;9.10;2.53;;;;;;;13.51;58.70;97576.22;5093530;28;20174;-69
2022/05/28 05:43:39;;;;;;;10.60;2.83;;;;;;;13.39;58.94;97579.41;5093079;28;20488;-69
2022/05/28 05:46:08;;;;;;;6.00;2.28;;;;;;;13.26;59.12;97584.59;5093389;28;20101;-69
2022/05/28 05:48:36;;;;;;;4.82;2.63;;;;;;;13.14;59.57;97579.38;5092283;28;20105;-69
2022/05/28 05:51:05;;;;;;;6.30;3.30;;;;;;;13.14;59.66;97590.56;5091806;28;20461;-68
2022/05/28 05:53:32;;;;;;;6.55;3.63;;;;;;;13.07;59.75;97582.19;5082172;28;20059;-69
2022/05/28 05:55:59;;;;;;;6.00;2.45;;;;;;;13.03;60.21;97578.59;5073050;28;20049;-69
2022/05/28 05:58:26;;;;;;;5.68;2.55;;;;;;;13.06;60.18;97585.38;5072397;28;20083;-69
2022/05/28 06:00:53;;;;;;;8.57;2.30;;;;;;;13.01;60.15;97586.56;5072371;28;20385;-69
2022/05/28 06:03:20;;;;;;;6.75;2.67;;;;;;;12.96;60.47;97589.69;5075703;28;20074;-68
2022/05/28 06:05:47;;;;;;;7.38;2.47;;;;;;;12.83;60.60;97592.06;5092790;28;20044;-69
2022/05/28 06:08:17;;;;;;;6.10;2.63;;;;;;;12.78;60.81;97595.22;5093499;28;20143;-69
2022/05/28 06:10:45;;;;;;;4.85;1.80;;;;;;;12.72;60.84;97590.44;5091164;28;20503;-69
2022/05/28 06:13:11;;;;;;;5.85;2.67;;;;;;;12.69;61.18;97596.78;5092503;28;20123;-69
2022/05/28 06:15:38;;;;;;;11.73;2.60;;;;;;;12.69;61.39;97592.03;5092392;28;20517;-69
2022/05/28 06:18:06;;;;;;;5.15;2.72;;;;;;;12.73;61.48;97592.81;5093098;28;20495;-69
2022/05/28 06:20:34;;;;;;;6.10;2.63;;;;;;;12.73;61.64;97592.81;5092597;28;20130;-73
2022/05/28 06:23:02;;;;;;;5.68;1.77;;;;;;;12.71;61.52;97595.19;5094348;28;20052;-70
2022/05/28 06:25:29;;;;;;;4.00;2.80;;;;;;;12.70;61.85;97599.19;5096672;28;20583;-69
2022/05/28 06:27:57;;;;;;;4.65;2.58;;;;;;;12.70;61.95;97599.19;5096685;28;20062;-69
2022/05/28 06:30:24;;;;;;;3.25;1.95;;;;;;;12.73;62.24;97603.97;5096656;28;20094;-70
2022/05/28 06:32:51;;;;;;;6.63;2.92;;;;;;;12.79;62.12;97602.41;5096796;28;20071;-70
2022/05/28 06:35:19;;;;;;;5.53;2.65;;;;;;;12.85;61.70;97589.66;5095621;28;20094;-69
2022/05/28 06:37:47;;;;;;;4.13;2.10;;;;;;;12.95;62.07;97593.69;5096693;28;20133;-73
2022/05/28 06:40:14;;;;;;;5.68;2.85;;;;;;;13.13;61.97;97610.50;5096550;28;20052;-69
2022/05/28 06:42:41;;;;;;;8.73;2.85;;;;;;;13.22;61.61;97605.31;5089390;28;20071;-69
2022/05/28 06:45:13;;;;;;;5.55;1.77;;;;;;;13.26;61.81;97603.34;5076224;28;20411;-69
2022/05/28 06:47:42;;;;;;;5.32;2.25;;;;;;;13.29;61.44;97602.56;5074870;28;20076;-69
2022/05/28 06:52:57;;;;;;;4.95;2.40;;;;;;;13.23;61.57;97612.53;5076080;28;20125;-68
2022/05/28 06:55:24;;;;;;;6.78;2.42;;;;;;;13.29;61.42;97610.94;5075682;28;20507;-70
2022/05/28 06:57:52;;;;;;;4.03;2.22;;;;;;;13.31;61.04;97609.31;5076001;28;20048;-70
2022/05/28 07:00:19;;;;;;;3.08;1.85;;;;;;;13.34;61.33;97607.72;5075626;28;20139;-69
2022/05/28 07:02:46;;;;;;;3.63;2.00;;;;;;;13.33;61.20;97615.31;5076495;28;20041;-70
2022/05/28 07:05:15;;;;;;;3.95;1.90;;;;;;;13.33;61.03;97608.94;5094680;28;20130;-68
2022/05/28 07:07:43;;;;;;;6.85;3.78;;;;;;;13.46;60.82;97618.50;5095655;28;20404;-69
2022/05/28 07:10:11;;;;;;;4.28;2.00;;;;;;;13.57;59.95;97624.91;5095983;28;20396;-69
2022/05/28 07:12:38;;;;;;;5.65;1.95;;;;;;;13.40;60.55;97620.09;5095936;28;20040;-69
2022/05/28 07:15:06;;;;;;;8.77;1.75;;;;;;;13.46;60.70;97624.91;5096087;28;20044;-69
2022/05/28 07:17:33;;;;;;;5.65;2.20;;;;;;;13.57;60.55;97608.16;5096114;28;20052;-69
2022/05/28 07:20:01;;;;;;;5.00;2.00;;;;;;;13.77;60.11;97629.69;5095794;28;20063;-69
2022/05/28 07:22:29;;;;;;;3.38;1.80;;;;;;;13.84;59.73;97631.69;5096058;28;20040;-70
2022/05/28 07:24:56;;;;;;;5.32;1.60;;;;;;;13.89;59.40;97631.28;5095864;28;20051;-70
2022/05/28 07:27:23;;;;;;;3.60;2.13;;;;;;;13.95;59.36;97635.28;5095925;28;20101;-76
2022/05/28 07:29:53;;;;;;;5.03;2.08;;;;;;;13.81;59.61;97638.06;5096284;28;20094;-69
2022/05/28 07:32:24;;;;;;;4.32;2.03;;;;;;;13.68;59.46;97642.47;5087959;28;20070;-68
2022/05/28 07:34:52;;;;;;;3.05;2.00;;;;;;;13.71;59.38;97641.69;5074771;28;20060;-67
2022/05/28 07:37:18;;;;;;;4.20;1.80;;;;;;;13.84;58.72;97648.47;5075321;28;20060;-68
2022/05/28 07:39:45;;;;;;;3.45;1.60;;;;;;;13.88;58.45;97655.63;5075062;28;20534;-67
2022/05/28 07:42:13;;;;;;;2.67;1.80;;;;;;;13.89;57.74;97651.63;5074954;28;20431;-67
2022/05/28 07:44:41;;;;;;;3.72;1.50;;;;;;;13.92;57.68;97648.03;5075543;28;20142;-71
2022/05/28 07:47:08;;;;;;;9.23;1.63;;;;;;;14.00;57.37;97646.84;5074962;28;20048;-75
2022/05/28 07:49:36;;;;;;;9.25;1.52;;;;;;;14.05;56.69;97657.63;5074781;28;20430;-75
2022/05/28 07:52:04;;;;;;;3.03;1.30;;;;;;;13.93;56.71;97660.03;5074911;28;20407;-74
2022/05/28 07:54:31;;;;;;;2.25;1.27;;;;;;;13.79;57.18;97669.22;5074816;28;20105;-74
2022/05/28 07:56:58;;;;;;;5.95;1.50;;;;;;;13.66;57.07;97675.59;5074752;28;20059;-75
2022/05/28 07:59:25;;;;;;;2.95;1.33;;;;;;;13.51;57.19;97676.78;5074838;28;20098;-67
2022/05/28 08:01:52;;;;;;;2.83;1.40;;;;;;;13.42;57.03;97670.78;5074614;28;20040;-68
2022/05/28 08:04:19;;;;;;;7.22;2.00;;;;;;;13.64;56.99;97686.38;5074651;28;20103;-67
2022/05/28 08:06:46;;;;;;;4.35;1.50;;;;;;;13.72;56.57;97694.38;5074528;28;20065;-68
2022/05/28 08:09:13;;;;;;;3.22;1.40;;;;;;;14.03;56.08;97695.56;5074732;28;20060;-67
2022/05/28 08:11:41;;;;;;;3.80;1.80;;;;;;;14.53;54.97;97691.53;5074263;28;20048;-67
2022/05/28 08:14:09;;;;;;;3.50;1.60;;;;;;;14.78;54.67;97689.47;5074696;28;20056;-68
2022/05/28 08:16:36;;;;;;;4.10;1.70;;;;;;;14.96;54.14;97684.63;5074870;28;20063;-69
2022/05/28 08:19:03;;;;;;;3.08;1.80;;;;;;;14.97;53.77;97685.38;5074653;28;20461;-68
2022/05/28 08:24:15;;;;;;;6.63;1.65;;;;;;;14.88;54.21;97683.03;5074699;28;20131;-70
2022/05/28 08:26:42;;;;;;;4.47;1.50;;;;;;;14.92;53.53;97688.63;5074337;28;20561;-69
2022/05/28 08:29:09;;;;;;;4.63;1.80;;;;;;;15.05;53.32;97698.16;5072893;28;20078;-70
2022/05/28 08:31:36;;;;;;;9.35;1.58;;;;;;;15.09;52.57;97694.16;5074272;28;20048;-69
2022/05/28 08:34:03;;;;;;;4.05;1.55;;;;;;;14.87;53.57;97698.25;5074324;28;20056;-69
2022/05/28 08:36:30;;;;;;;1.58;1.10;;;;;;;14.68;53.88;97707.09;5073972;28;20519;-69
2022/05/28 08:38:58;;;;;;;3.22;1.40;;;;;;;14.41;54.57;97712.34;5074729;28;20079;-69
2022/05/28 08:41:35;;;;;;;3.00;1.20;;;;;;;14.13;55.16;97711.56;5094200;28;20071;-69
2022/05/28 08:44:13;;;;;;;5.13;1.40;;;;;;;13.85;55.76;97725.50;5094822;28;20082;-70
2022/05/28 08:46:43;;;;;;;5.15;1.40;;;;;;;13.53;56.82;97738.66;5092873;28;20404;-69
2022/05/28 08:49:13;;;;;;;3.28;1.63;;;;;;;13.24;57.93;97742.53;5093935;28;20044;-70
2022/05/28 08:51:52;;;;;;;;;;;;;;;12.92;58.80;97742.38;5094216;28;20044;-69
2022/05/28 08:54:30;;;;;;;5.65;1.80;;;;;;;12.84;59.27;97744.34;5075730;28;19924;-69
2022/05/28 08:57:07;;;;;;;4.90;1.70;;;;;;;12.79;59.58;97741.91;5073508;28;20135;-69
2022/05/28 08:59:40;;;;;;;2.78;1.50;;;;;;;12.87;59.85;97740.78;5073687;28;20127;-70
2022/05/28 09:02:16;;;;;;;3.85;1.60;;;;;;;12.93;60.16;97751.56;5073755;28;20090;-70
2022/05/28 09:04:44;;;;;;;3.05;1.40;;;;;;;12.81;60.86;97747.91;5089110;28;20441;-68
2022/05/28 09:07:13;;;;;;;3.22;1.50;;;;;;;12.75;61.35;97741.09;5092260;28;20125;-69
2022/05/28 09:09:47;;;;;;;3.58;1.58;;;;;;;12.75;61.77;97757.03;5093889;28;20479;-70
2022/05/28 09:12:24;;;;;;;5.97;2.38;;;;;;;12.65;62.44;97758.56;5093349;28;20131;-69
2022/05/28 09:14:51;;;;;;;3.42;1.48;;;;;;;12.57;62.66;97756.13;5093297;28;20048;-70
2022/05/28 09:17:24;;;;;;;11.88;1.95;;;;;;;12.49;63.15;97766.44;5093994;28;20097;-69
2022/05/28 09:19:55;;;;;;;3.45;1.65;;;;;;;12.50;63.29;97759.66;5093760;28;20143;-72
2022/05/28 09:22:24;;;;;;;4.50;1.92;;;;;;;12.49;63.51;97766.44;5093741;28;20411;-72
2022/05/28 09:24:51;;;;;;;3.05;1.95;;;;;;;12.36;63.94;97767.16;5093379;28;20079;-71
2022/05/28 09:27:30;;;;;;;5.45;1.98;;;;;;;12.09;64.50;97769.34;5093175;28;20067;-73
2022/05/28 09:30:15;;;;;;;4.05;1.58;;;;;;;11.76;66.04;97766.66;5092922;28;20396;-71
2022/05/28 09:33:03;;;;;;;4.75;2.03;;;;;;;11.64;66.36;97775.28;5093346;28;20044;-72
2022/05/28 09:35:54;;;;;;;6.20;2.42;;;;;;;11.65;66.73;97776.88;5093452;28;20537;-75
2022/05/28 09:39:13;;;;;;;11.38;1.88;;;;;;;11.68;65.89;97789.22;5093287;28;20113;-72
2022/05/28 09:41:51;;;;;;;3.53;1.80;;;;;;;11.66;66.22;97786.03;4996125;28;20065;-72
2022/05/28 09:44:21;;;;;;;6.60;2.30;;;;;;;11.86;66.18;97793.78;5073079;28;20067;-71
2022/05/28 09:46:48;;;;;;;5.47;2.42;;;;;;;12.22;65.31;97795.72;5072758;28;20044;-72
2022/05/28 09:49:21;;;;;;;5.03;2.33;;;;;;;12.60;64.69;97799.97;5072618;28;20416;-72
2022/05/28 09:51:57;;;;;;;5.10;2.20;;;;;;;12.91;64.15;97794.59;5071202;28;20044;-72
2022/05/28 09:54:30;;;;;;;6.70;2.72;;;;;;;13.19;63.90;97805.16;5072738;28;20052;-73
2022/05/28 09:57:20;;;;;;;3.30;2.03;;;;;;;13.28;63.71;97810.38;5072498;28;20419;-73
2022/05/28 10:00:00;;;;;;;4.45;2.28;;;;;;;13.32;63.83;97803.59;5072526;28;20052;-73
2022/05/28 10:04:28;;;;;;;;;;;;;;;13.23;63.84;97808.75;5073263;28;20469;-72
2022/05/28 10:05:44;;;;;;;7.72;3.15;;;;;;;13.16;64.43;97813.50;5069393;28;19930;-71
2022/05/28 10:08:14;;;;;;;6.43;3.03;;;;;;;13.33;64.03;97813.59;5073136;28;20529;-74
2022/05/28 10:10:41;;;;;;;9.30;2.72;;;;;;;13.60;63.45;97819.69;5072625;28;20094;-71
2022/05/28 10:13:12;;;;;;;5.00;2.97;;;;;;;14.02;62.17;97825.38;5072589;28;20538;-72
2022/05/28 10:15:46;;;;;;;5.40;3.25;;;;;;;14.54;61.39;97828.25;5072382;28;20412;-71
2022/05/28 10:18:18;;;;;;;6.38;2.65;;;;;;;14.69;60.45;97827.03;5072360;28;20052;-71
2022/05/28 10:21:08;;;;;;;8.63;2.47;;;;;;;14.60;60.59;97820.25;5072573;28;20071;-72
2022/05/28 10:23:37;;;;;;;3.75;2.20;;;;;;;15.28;59.54;97821.72;5072812;28;20139;-71
2022/05/28 10:26:10;;;;;;;6.90;1.75;;;;;;;15.49;59.33;97825.28;5072458;28;20503;-71
2022/05/28 10:28:47;;;;;;;2.97;2.10;;;;;;;15.50;59.00;97818.47;5072824;28;20052;-71
2022/05/28 10:31:34;;;;;;;4.97;1.80;;;;;;;15.47;58.62;97819.28;5071940;28;20049;-73
2022/05/28 10:34:02;;;;;;;7.43;2.13;;;;;;;15.44;58.56;97824.91;5072688;28;20411;-71
2022/05/28 10:36:32;;;;;;;2.97;1.70;;;;;;;15.75;57.62;97823.97;5072344;28;20136;-71
2022/05/28 10:39:18;;;;;;;2.58;1.38;;;;;;;15.96;56.29;97810.63;5072551;28;20139;-71
2022/05/28 10:41:52;;;;;;;5.47;1.70;;;;;;;16.06;56.37;97823.78;5072142;28;20051;-72
2022/05/28 10:44:19;;;;;;;4.07;1.58;;;;;;;15.91;56.68;97827.09;5072345;28;20048;-72
2022/05/28 10:47:13;;;;;;;6.53;1.65;;;;;;;15.80;56.29;97827.13;5072060;28;20079;-72
2022/05/28 10:49:54;;;;;;;5.20;1.50;;;;;;;15.86;55.80;97831.13;5031731;28;20071;-71
2022/05/28 10:52:27;;;;;;;2.28;1.20;;;;;;;15.87;55.50;97824.28;5070714;28;20135;-71
2022/05/28 10:55:08;;;;;;;3.38;1.38;;;;;;;15.87;54.56;97823.50;5071358;28;20052;-71
2022/05/28 10:57:48;;;;;;;4.72;1.40;;;;;;;16.08;54.30;97823.38;5071094;28;20094;-71
2022/05/28 11:00:19;;;;;;;1.67;1.00;;;;;;;16.09;52.60;97825.78;5072179;28;20139;-70
2022/05/28 11:03:10;;;;;;;4.85;1.15;;;;;;;16.13;51.74;97829.34;5072822;28;20131;-71
2022/05/28 11:06:05;;;;;;;3.30;1.40;;;;;;;16.26;51.25;97835.28;5072034;28;20048;-73
2022/05/28 11:08:44;;;;;;;1.52;1.00;;;;;;;16.30;50.86;97839.66;5072158;28;20131;-71
2022/05/28 11:11:43;;;;;;;1.60;0.90;;;;;;;16.17;49.16;97832.91;5075557;28;20143;-72
2022/05/28 11:14:43;;;;;;;2.10;1.13;;;;;;;16.42;49.03;97839.16;5063717;28;20125;-71
2022/05/28 11:17:48;;;;;;;5.53;1.38;;;;;;;16.71;48.32;97827.72;5075639;28;20053;-71
2022/05/28 11:20:26;;;;;;;7.90;1.48;;;;;;;16.97;47.89;97832.72;5075554;28;20051;-71
2022/05/28 11:23:11;;;;;;;3.70;1.08;;;;;;;16.86;47.57;97837.63;5075506;28;20052;-72
2022/05/28 11:25:44;;;;;;;3.35;1.40;;;;;;;16.80;47.62;97833.66;5074265;28;20128;-73
2022/05/28 11:28:29;;;;;;;1.40;1.00;;;;;;;17.09;46.93;97861.09;5075220;28;20064;-72
2022/05/28 11:31:19;;;;;;;1.20;0.80;;;;;;;17.00;45.66;97854.34;5075436;28;20416;-72
2022/05/28 11:33:49;;;;;;;11.25;1.20;;;;;;;16.68;44.67;97840.59;5075030;28;20048;-71
2022/05/28 11:36:21;;;;;;;2.40;1.15;;;;;;;16.44;45.39;97844.41;5075413;28;20135;-73
2022/05/28 11:38:57;;;;;;;3.08;1.05;;;;;;;16.37;45.62;97848.03;5075375;28;20079;-72
2022/05/28 11:41:34;;;;;;;4.20;1.42;;;;;;;16.18;45.81;97851.38;5075133;28;20166;-73
2022/05/28 11:44:15;;;;;;;2.28;1.23;;;;;;;15.98;46.44;97855.88;5075453;28;20057;-72
2022/05/28 11:46:58;;;;;;;3.47;1.10;;;;;;;15.99;46.82;97865.09;5073600;28;20110;-72
2022/05/28 11:52:48;;;;;;;2.72;1.00;;;;;;;16.23;46.29;97862.13;5074984;28;20062;-74
2022/05/28 11:55:23;;;;;;;3.13;1.30;;;;;;;16.39;45.95;97867.25;5075249;28;20054;-72
2022/05/28 11:58:11;;;;;;;3.45;1.30;;;;;;;16.54;46.01;97865.16;5075039;28;20051;-73
2022/05/28 12:00:40;;;;;;;6.65;1.20;;;;;;;16.56;45.58;97877.59;5075204;28;20048;-74
2022/05/28 12:03:20;;;;;;;3.50;1.20;;;;;;;16.56;45.46;97886.03;5076134;28;20051;-71